< VanCam Weather - WU Station History
^^
Station Historical Data
Daily Summary for January 11, 2018 Units:  English    Metric   Both
« Previous Day
Next Day »
Daily Weekly Monthly Yearly Custom
  High: Low: Average:
Temperature: 54.1 °F 47.0 °F 49.4 °F
Dew Point: 51.5 °F 45.7 °F 48.1 °F
Humidity: 98% 89% 95%
Wind Speed: 11.5mph 0.0mph 3.8mph
Wind Gust: 11.5mph - -
Wind- - SSE
Pressure: 30.15 in 29.77 in -
Precipitation: 0.62 in    
Historical Graphs
 
 
Tabular Data for January 11, 2018
Time Temperature Dew Point Pressure Wind Wind Speed Wind Gust Humidity Rainfall Rate (Hourly) solar Conditions
00:01 47.1 °F 45.7 °F 30.06 in East 3.5 mph 3.5 mph 95% 0.00 in WeatherDisplay:10.37 W/m2 RA
00:08 47.1 °F 45.7 °F 30.05 in East 2.3 mph 2.3 mph 95% 0.00 in WeatherDisplay:10.37 W/m2 RA
00:36 47.2 °F 46.1 °F 30.05 in ESE 1.2 mph 1.2 mph 96% 0.00 in WeatherDisplay:10.37 W/m2 CLR
00:45 47.2 °F 46.1 °F 30.06 in ESE 2.3 mph 2.3 mph 96% 0.00 in WeatherDisplay:10.37 W/m2 CLR
00:50 47.1 °F 46.0 °F 30.06 in Calm   1.0 mph 96% 0.00 in WeatherDisplay:10.37 W/m2 CLR
00:56 47.1 °F 46.0 °F 30.07 in Calm     96% 0.00 in WeatherDisplay:10.37 W/m2 CLR
01:40 47.4 °F 46.6 °F 30.04 in Calm   2.0 mph 97% 0.00 in WeatherDisplay:10.37 W/m2 CLR
01:45 47.4 °F 46.6 °F 30.05 in ENE 1.2 mph   97% 0.00 in WeatherDisplay:10.37 W/m2 CLR
01:56 47.5 °F 46.7 °F 30.05 in East 1.2 mph 1.2 mph 97% 0.01 in WeatherDisplay:10.37 W/m2 RA
02:14 47.5 °F 46.7 °F 30.05 in NE 1.2 mph 1.2 mph 97% 0.03 in WeatherDisplay:10.37 W/m2 RA
02:20 47.5 °F 46.7 °F 30.04 in NE 1.2 mph 1.2 mph 97% 0.03 in WeatherDisplay:10.37 W/m2
02:25 47.7 °F 46.9 °F 30.05 in Calm     97% 0.03 in WeatherDisplay:10.37 W/m2
02:42 47.8 °F 47.0 °F 30.03 in East 2.3 mph 2.3 mph 97% 0.03 in WeatherDisplay:10.37 W/m2
03:08 47.6 °F 47.1 °F 30.02 in ESE 2.3 mph 2.3 mph 98% 0.01 in WeatherDisplay:10.37 W/m2
03:26 48.1 °F 47.6 °F 30.01 in ENE 3.5 mph 3.5 mph 98% 0.01 in WeatherDisplay:10.37 W/m2
03:31 48.2 °F 47.7 °F 30.01 in East 3.5 mph 3.5 mph 98% 0.01 in WeatherDisplay:10.37 W/m2
03:39 48.5 °F 48.0 °F 30.01 in SSE 2.3 mph 2.3 mph 98% 0.01 in WeatherDisplay:10.37 W/m2
03:44 48.6 °F 48.1 °F 30.00 in WSW 2.3 mph 2.3 mph 98% 0.01 in WeatherDisplay:10.37 W/m2
03:53 48.8 °F 48.0 °F 30.01 in ESE 3.5 mph 3.5 mph 97% 0.02 in WeatherDisplay:10.37 W/m2 RA
04:06 48.8 °F 48.0 °F 30.01 in SSW 3.5 mph 3.5 mph 97% 0.01 in WeatherDisplay:10.37 W/m2
04:21 48.8 °F 48.0 °F 30.00 in SW 1.2 mph 1.2 mph 97% 0.03 in WeatherDisplay:10.37 W/m2 RA
04:28 48.7 °F 47.9 °F 30.00 in East 2.3 mph   97% 0.04 in WeatherDisplay:10.37 W/m2 RA
04:44 48.4 °F 47.6 °F 29.99 in ESE 3.5 mph 3.5 mph 97% 0.06 in WeatherDisplay:10.37 W/m2 RA
04:50 48.3 °F 47.5 °F 29.99 in ENE 2.3 mph 2.3 mph 97% 0.06 in WeatherDisplay:10.37 W/m2 RA
04:58 48.2 °F 47.4 °F 29.98 in ENE 2.0 mph 2.0 mph 97% 0.07 in WeatherDisplay:10.37 W/m2 RA
05:08 48.1 °F 47.3 °F 29.97 in SE 2.3 mph 2.3 mph 97% 0.08 in WeatherDisplay:10.37 W/m2 RA
05:27 47.9 °F 47.1 °F 29.94 in ESE 3.5 mph 3.5 mph 97% 0.08 in WeatherDisplay:10.37 W/m2 RA
05:34 47.8 °F 47.0 °F 29.93 in ESE 6.9 mph 6.9 mph 97% 0.07 in WeatherDisplay:10.37 W/m2
05:43 47.8 °F 47.0 °F 29.93 in East 4.0 mph 4.0 mph 97% 0.06 in WeatherDisplay:10.37 W/m2
05:59 47.4 °F 46.3 °F 29.91 in East 3.5 mph 3.5 mph 96% 0.06 in WeatherDisplay:10.37 W/m2 RA
06:07 47.3 °F 46.2 °F 29.91 in East 3.5 mph 3.5 mph 96% 0.05 in WeatherDisplay:10.37 W/m2 RA
06:25 47.1 °F 46.1 °F 29.91 in East 2.0 mph 6.0 mph 96% 0.04 in WeatherDisplay:10.37 W/m2 RA
06:32 47.1 °F 46.0 °F 29.90 in SE 1.2 mph 1.2 mph 96% 0.04 in WeatherDisplay:10.37 W/m2
06:37 47.0 °F 45.9 °F 29.90 in ESE 2.3 mph 2.3 mph 96% 0.05 in WeatherDisplay:10.37 W/m2 RA
06:42 47.0 °F 45.9 °F 29.90 in ESE 2.3 mph 2.3 mph 96% 0.06 in WeatherDisplay:10.37 W/m2 RA
06:50 47.0 °F 45.9 °F 29.89 in SE 3.0 mph 3.0 mph 96% 0.05 in WeatherDisplay:10.37 W/m2
06:58 47.0 °F 45.9 °F 29.89 in ESE 8.1 mph 8.1 mph 96% 0.05 in WeatherDisplay:10.37 W/m2 RA
07:03 47.1 °F 46.0 °F 29.89 in East 3.5 mph 3.5 mph 96% 0.05 in WeatherDisplay:10.37 W/m2 RA
07:10 47.0 °F 45.9 °F 29.88 in ESE 3.5 mph 3.5 mph 96% 0.04 in WeatherDisplay:10.37 W/m2
07:21 47.1 °F 46.0 °F 29.88 in SE 2.3 mph 2.3 mph 96% 0.04 in WeatherDisplay:10.37 W/m2
07:28 47.1 °F 46.0 °F 29.87 in ESE 7.0 mph 7.0 mph 96% 0.03 in WeatherDisplay:10.37 W/m2
07:45 47.2 °F 46.1 °F 29.86 in East 9.2 mph 9.2 mph 96% 0.01 in WeatherDisplay:10.37 W/m2
08:02 47.4 °F 46.3 °F 29.86 in ESE 1.2 mph 1.2 mph 96% 0.01 in WeatherDisplay:10.37 W/m2 RA
08:08 47.5 °F 46.4 °F 29.85 in SE 3.5 mph 3.5 mph 96% 0.01 in WeatherDisplay:10.37 W/m2 RA
08:23 47.7 °F 46.9 °F 29.85 in ESE 5.8 mph 5.8 mph 97% 0.04 in WeatherDisplay:10.37 W/m2 RA
08:35 47.8 °F 46.7 °F 29.85 in East 7.0 mph 7.0 mph 96% 0.06 in WeatherDisplay:10.37 W/m2 RA
08:42 47.8 °F 47.0 °F 29.85 in East 3.5 mph 3.5 mph 97% 0.07 in WeatherDisplay:10.37 W/m2 RA
08:51 48.0 °F 46.9 °F 29.85 in SE 5.8 mph 5.8 mph 96% 0.07 in WeatherDisplay:10.37 W/m2
09:01 48.1 °F 47.0 °F 29.84 in SSE 3.5 mph 3.5 mph 96% 0.08 in WeatherDisplay:10.37 W/m2 RA
09:10 48.2 °F 47.1 °F 29.84 in East 9.2 mph 9.2 mph 96% 0.06 in WeatherDisplay:10.37 W/m2
09:17 48.3 °F 47.5 °F 29.83 in SE 4.6 mph 4.6 mph 97% 0.06 in WeatherDisplay:10.37 W/m2 RA
09:31 48.4 °F 47.6 °F 29.83 in East 3.5 mph 3.5 mph 97% 0.04 in WeatherDisplay:10.37 W/m2
09:39 48.4 °F 47.6 °F 29.83 in East 4.0 mph 4.0 mph 97% 0.04 in WeatherDisplay:10.37 W/m2 RA
09:47 48.5 °F 47.7 °F 29.82 in ENE 8.1 mph 8.1 mph 97% 0.05 in WeatherDisplay:10.37 W/m2 RA
10:02 48.9 °F 48.1 °F 29.82 in ESE 3.5 mph 3.5 mph 97% 0.04 in WeatherDisplay:10.37 W/m2
10:07 49.1 °F 48.3 °F 29.81 in ESE 3.5 mph 3.5 mph 97% 0.05 in WeatherDisplay:10.37 W/m2 RA
10:19 49.4 °F 48.6 °F 29.82 in SE 3.5 mph 3.5 mph 97% 0.04 in WeatherDisplay:10.37 W/m2
10:46 49.8 °F 49.0 °F 29.82 in ESE 3.5 mph 3.5 mph 97% 0.01 in WeatherDisplay:10.37 W/m2
10:56 50.0 °F 49.2 °F 29.82 in East 3.5 mph 3.5 mph 97% 0.02 in WeatherDisplay:10.37 W/m2 RA
11:14 50.4 °F 49.6 °F 29.80 in ESE 3.5 mph 3.5 mph 97% 0.02 in WeatherDisplay:10.37 W/m2 RA
11:20 50.5 °F 49.7 °F 29.81 in East 2.3 mph 2.3 mph 97% 0.02 in WeatherDisplay:10.37 W/m2
11:39 50.5 °F 49.7 °F 29.80 in ENE 2.3 mph 2.3 mph 97% 0.02 in WeatherDisplay:10.37 W/m2
11:50 50.6 °F 49.8 °F 29.79 in East 3.0 mph 3.0 mph 97% 0.03 in WeatherDisplay:10.37 W/m2
12:13 51.5 °F 50.7 °F 29.79 in WNW 3.5 mph 3.5 mph 97% 0.04 in WeatherDisplay:10.37 W/m2 RA
12:25 52.0 °F 50.9 °F 29.77 in WNW 8.1 mph 8.1 mph 96% 0.05 in WeatherDisplay:10.37 W/m2 RA
12:34 52.2 °F 51.1 °F 29.78 in SSE 4.6 mph 4.6 mph 96% 0.05 in WeatherDisplay:10.37 W/m2
12:41 52.3 °F 51.2 °F 29.79 in SE 3.5 mph 3.5 mph 96% 0.04 in WeatherDisplay:10.37 W/m2
12:48 52.5 °F 51.4 °F 29.78 in East 4.0 mph 4.0 mph 96% 0.04 in WeatherDisplay:10.37 W/m2
13:03 53.2 °F 51.2 °F 29.79 in West 5.8 mph 5.8 mph 93% 0.02 in WeatherDisplay:10.37 W/m2
13:24 54.1 °F 51.5 °F 29.79 in South 9.2 mph 9.2 mph 91% 0.00 in WeatherDisplay:10.37 W/m2 CLR
13:39 53.9 °F 50.7 °F 29.79 in SSW 4.6 mph 4.6 mph 89% 0.00 in WeatherDisplay:10.37 W/m2 CLR
13:49 53.6 °F 50.4 °F 29.78 in WSW 5.8 mph 5.8 mph 89% 0.00 in WeatherDisplay:10.37 W/m2 CLR
13:55 53.5 °F 50.3 °F 29.78 in SW 3.5 mph 3.5 mph 89% 0.00 in WeatherDisplay:10.37 W/m2 CLR
14:15 53.3 °F 50.1 °F 29.78 in SE 2.3 mph 2.3 mph 89% 0.00 in WeatherDisplay:10.37 W/m2 CLR
14:20 53.1 °F 50.2 °F 29.77 in NNW 4.6 mph 4.6 mph 90% 0.00 in WeatherDisplay:10.37 W/m2 CLR
14:26 52.9 °F 50.6 °F 29.77 in South 2.3 mph 2.3 mph 92% 0.00 in WeatherDisplay:10.37 W/m2 CLR
14:32 52.6 °F 50.6 °F 29.78 in WNW 3.5 mph 3.5 mph 93% 0.00 in WeatherDisplay:10.37 W/m2 CLR
14:37 52.5 °F 50.2 °F 29.79 in SSW 3.5 mph 3.5 mph 92% 0.01 in WeatherDisplay:10.37 W/m2 RA
15:00 52.1 °F 50.1 °F 29.80 in South 4.6 mph 4.6 mph 93% 0.02 in WeatherDisplay:10.37 W/m2
15:05 52.0 °F 50.0 °F 29.80 in SSE 4.0 mph 4.0 mph 93% 0.04 in WeatherDisplay:10.37 W/m2 RA
15:10 51.9 °F 49.9 °F 29.81 in South 5.8 mph 5.8 mph 93% 0.06 in WeatherDisplay:10.37 W/m2 RA
15:17 51.7 °F 49.7 °F 29.81 in South 11.5 mph 11.5 mph 93% 0.08 in WeatherDisplay:10.37 W/m2 RA
15:28 51.3 °F 49.6 °F 29.82 in SSE 3.5 mph 3.5 mph 94% 0.10 in WeatherDisplay:10.37 W/m2 RA
15:34 51.0 °F 49.3 °F 29.82 in SW 3.5 mph 3.5 mph 94% 0.11 in WeatherDisplay:10.37 W/m2 RA
15:35 50.9 °F 49.2 °F 29.82 in SSW 8.1 mph 8.1 mph 94% 0.12 in WeatherDisplay:10.37 W/m2 RA
15:42 50.6 °F 48.7 °F 29.83 in NNW 2.3 mph 2.3 mph 93% 0.12 in WeatherDisplay:10.37 W/m2 RA
15:45 50.5 °F 48.6 °F 29.83 in WSW 3.5 mph 3.5 mph 93% 0.12 in WeatherDisplay:10.37 W/m2 RA
16:02 49.7 °F 47.8 °F 29.83 in SW 3.5 mph 3.5 mph 93% 0.13 in WeatherDisplay:10.37 W/m2 RA
16:16 49.6 °F 47.9 °F 29.84 in SSE 3.5 mph 3.5 mph 94% 0.09 in WeatherDisplay:10.37 W/m2
16:30 49.6 °F 47.9 °F 29.85 in SSW 4.6 mph 4.6 mph 94% 0.06 in WeatherDisplay:10.37 W/m2
16:37 49.6 °F 47.9 °F 29.86 in WSW 8.1 mph 8.1 mph 94% 0.05 in WeatherDisplay:10.37 W/m2
16:54 49.5 °F 48.1 °F 29.87 in South 2.3 mph 2.3 mph 95% 0.03 in WeatherDisplay:10.37 W/m2 RA
17:43 49.2 °F 48.1 °F 29.91 in SSE 3.5 mph 3.5 mph 96% 0.01 in WeatherDisplay:10.37 W/m2
18:19 49.6 °F 48.2 °F 29.93 in South 3.5 mph 3.5 mph 95% 0.00 in WeatherDisplay:10.37 W/m2 CLR
18:37 49.5 °F 48.1 °F 29.94 in NE 3.0 mph 3.0 mph 95% 0.00 in WeatherDisplay:10.37 W/m2 CLR
18:52 49.7 °F 48.3 °F 29.96 in SE 2.3 mph 2.3 mph 95% 0.00 in WeatherDisplay:10.37 W/m2 CLR
19:11 49.8 °F 48.1 °F 29.97 in SSW 2.3 mph 2.3 mph 94% 0.00 in WeatherDisplay:10.37 W/m2 CLR
19:17 49.8 °F 48.1 °F 29.97 in East 5.8 mph 5.8 mph 94% 0.00 in WeatherDisplay:10.37 W/m2 CLR
19:24 49.7 °F 48.0 °F 29.98 in SW 2.3 mph 2.3 mph 94% 0.00 in WeatherDisplay:10.37 W/m2 CLR
19:44 49.8 °F 48.1 °F 29.99 in West 3.5 mph 3.5 mph 94% 0.00 in WeatherDisplay:10.37 W/m2 CLR
19:58 49.8 °F 48.1 °F 30.00 in East 4.6 mph 4.6 mph 94% 0.00 in WeatherDisplay:10.37 W/m2 CLR
20:03 49.7 °F 48.0 °F 30.00 in East 3.5 mph 3.5 mph 94% 0.00 in WeatherDisplay:10.37 W/m2 CLR
20:19 49.8 °F 48.1 °F 30.01 in East 6.9 mph 6.9 mph 94% 0.00 in WeatherDisplay:10.37 W/m2 CLR
20:24 49.8 °F 48.1 °F 30.01 in ENE 3.5 mph 3.5 mph 94% 0.00 in WeatherDisplay:10.37 W/m2 CLR
20:43 50.0 °F 48.1 °F 30.03 in South 8.1 mph 8.1 mph 93% 0.00 in WeatherDisplay:10.37 W/m2 CLR
20:51 49.9 °F 48.0 °F 30.04 in West 4.6 mph 4.6 mph 93% 0.00 in WeatherDisplay:10.37 W/m2 CLR
20:58 49.9 °F 48.0 °F 30.04 in South 5.8 mph 5.8 mph 93% 0.00 in WeatherDisplay:10.37 W/m2 CLR
21:13 50.0 °F 48.3 °F 30.05 in NE 5.8 mph 5.8 mph 94% 0.00 in WeatherDisplay:10.37 W/m2 CLR
21:18 49.9 °F 48.2 °F 30.06 in West 3.5 mph 3.5 mph 94% 0.00 in WeatherDisplay:10.37 W/m2 CLR
21:33 49.9 °F 48.2 °F 30.07 in SSW 3.5 mph 3.5 mph 94% 0.00 in WeatherDisplay:10.37 W/m2 CLR
21:40 49.9 °F 48.5 °F 30.08 in ESE 3.5 mph 3.5 mph 95% 0.00 in WeatherDisplay:10.37 W/m2 CLR
21:46 49.8 °F 48.4 °F 30.08 in SW 6.9 mph 6.9 mph 95% 0.00 in WeatherDisplay:10.37 W/m2 CLR
21:53 49.7 °F 48.3 °F 30.08 in WSW 4.6 mph 4.6 mph 95% 0.00 in WeatherDisplay:10.37 W/m2 CLR
21:58 49.6 °F 48.5 °F 30.09 in SSE 2.3 mph 2.3 mph 96% 0.01 in WeatherDisplay:10.37 W/m2 RA
22:09 49.6 °F 48.5 °F 30.09 in SW 4.0 mph 4.0 mph 96% 0.01 in WeatherDisplay:10.37 W/m2
22:23 49.6 °F 48.5 °F 30.10 in South 2.3 mph 2.3 mph 96% 0.01 in WeatherDisplay:10.37 W/m2
22:32 49.6 °F 48.5 °F 30.10 in North 2.3 mph 2.3 mph 96% 0.01 in WeatherDisplay:10.37 W/m2
22:41 49.7 °F 48.6 °F 30.11 in South 3.5 mph 3.5 mph 96% 0.01 in WeatherDisplay:10.37 W/m2
22:46 49.7 °F 48.6 °F 30.11 in SW 3.5 mph 3.5 mph 96% 0.01 in WeatherDisplay:10.37 W/m2
23:01 49.7 °F 48.3 °F 30.12 in NW 3.5 mph 3.5 mph 95% 0.00 in WeatherDisplay:10.37 W/m2 CLR
23:15 49.9 °F 48.5 °F 30.12 in South 4.6 mph 4.6 mph 95% 0.00 in WeatherDisplay:10.37 W/m2 CLR
23:24 49.9 °F 48.5 °F 30.13 in South 2.3 mph 2.3 mph 95% 0.00 in WeatherDisplay:10.37 W/m2 CLR
23:42 50.1 °F 48.4 °F 30.14 in SSE 5.8 mph 5.8 mph 94% 0.00 in WeatherDisplay:10.37 W/m2 CLR
23:50 50.0 °F 48.4 °F 30.14 in South 3.0 mph 9.0 mph 94% 0.00 in WeatherDisplay:10.37 W/m2 CLR
23:59 49.9 °F 48.5 °F 30.15 in East 5.0 mph 5.0 mph 95% 0.00 in WeatherDisplay:10.37 W/m2 CLR
VanCam Weather
Compliments of Weather Underground - 4 mb